Time;durP1;ratioP1;P1;durP2;ratioP2;P2;SDS_P1;SDS_P2;PMS_P1;PMS_P2;Temp;Humidity;BMP_temperature;BMP_pressure;BME280_temperature;BME280_humidity;BME280_pressure;Samples;Min_cycle;Max_cycle;Signal;HPM_P1;HPM_P2
2022/01/13 00:02:05;;;;;;;;;37.00;32.75;;;;;5.33;75.00;103680.88;5079623;28;46083;-70
2022/01/13 00:04:34;;;;;;;;;40.25;33.50;;;;;5.39;74.56;103675.22;5079815;28;45323;-69
2022/01/13 00:06:59;;;;;;;;;43.50;34.25;;;;;5.35;74.25;103678.38;5077452;28;45527;-68
2022/01/13 00:09:25;;;;;;;;;44.25;34.75;;;;;5.37;74.41;103676.81;5075199;28;45422;-69
2022/01/13 00:11:56;;;;;;;;;45.50;35.25;;;;;5.32;74.17;103671.28;5094422;27;46527;-68
2022/01/13 00:14:26;;;;;;;;;40.00;34.25;;;;;5.21;74.29;103664.41;5080361;27;45533;-68
2022/01/13 00:24:43;;;;;;;;;39.75;31.50;;;;;4.82;74.58;103627.91;5076762;28;45847;-70
2022/01/13 00:27:12;;;;;;;;;47.00;36.00;;;;;5.08;75.31;103678.25;5058897;28;45644;-69
2022/01/13 00:29:43;;;;;;;;;42.50;33.50;;;;;5.07;75.08;103674.72;5081055;28;45332;-68
2022/01/13 00:32:12;;;;;;;;;43.25;35.00;;;;;5.00;75.00;103653.38;5080594;28;46253;-67
2022/01/13 00:34:38;;;;;;;;;49.00;35.50;;;;;5.00;75.46;103651.69;5080685;28;45332;-70
2022/01/13 00:37:04;;;;;;;;;50.25;37.50;;;;;5.09;75.14;103673.13;5080500;28;45310;-69
2022/01/13 00:39:30;;;;;;;;;39.75;30.75;;;;;5.12;75.53;103674.16;5080662;28;45438;-68
2022/01/13 00:41:55;;;;;;;;;40.75;32.00;;;;;5.19;75.50;103677.28;5079473;28;45361;-69
2022/01/13 00:44:21;;;;;;;;;35.00;28.75;;;;;5.25;75.18;103674.25;5091833;27;45721;-69
2022/01/13 00:46:58;;;;;;;;;36.50;31.25;;;;;5.24;75.31;103657.75;5058091;28;45429;-69
2022/01/13 00:49:24;;;;;;;;;45.25;35.25;;;;;5.26;74.62;103665.63;5078657;28;45702;-68
2022/01/13 00:51:50;;;;;;;;;38.00;32.25;;;;;5.25;75.24;103656.94;5080059;28;45931;-69
2022/01/13 00:54:15;;;;;;;;;40.50;32.50;;;;;5.27;74.68;103651.88;5076083;28;45599;-69
2022/01/13 00:56:41;;;;;;;;;41.75;31.25;;;;;5.22;75.08;103635.00;5075898;28;45485;-68
2022/01/13 00:59:11;;;;;;;;;36.75;29.00;;;;;5.37;74.53;103667.31;5076019;28;46022;-69
2022/01/13 01:01:39;;;;;;;;;28.00;23.75;;;;;5.31;74.81;103654.78;5076309;28;46253;-69
2022/01/13 01:04:05;;;;;;;;;30.25;24.75;;;;;5.41;74.70;103658.00;5079236;28;45362;-69
2022/01/13 01:06:31;;;;;;;;;31.25;22.75;;;;;5.47;74.70;103661.03;5076074;28;45432;-69
2022/01/13 01:08:57;;;;;;;;;31.00;23.75;;;;;5.47;74.62;103659.34;5076232;28;45423;-68
2022/01/13 01:11:26;;;;;;;;;25.00;23.00;;;;;5.53;74.81;103664.09;5057566;28;46396;-67
2022/01/13 01:13:58;;;;;;;;;26.75;21.25;;;;;5.55;73.96;103667.66;5075734;28;45311;-68
2022/01/13 01:16:26;;;;;;;;;31.75;24.00;;;;;5.58;73.98;103662.69;5057626;28;45524;-69
2022/01/13 01:19:00;;;;;;;;;23.75;19.75;;;;;5.59;74.11;103672.28;5075829;28;45297;-68
2022/01/13 01:29:09;;;;;;;;;23.25;20.50;;;;;5.43;73.44;103635.63;5064215;28;45457;-68
2022/01/13 01:31:36;;;;;;;;;23.25;18.00;;;;;5.64;73.70;103652.69;5061256;28;46024;-68
2022/01/13 01:36:37;;;;;;;;;21.75;20.50;;;;;5.51;73.41;103639.66;5078624;28;45450;-68
2022/01/13 01:39:05;;;;;;;;;27.50;21.25;;;;;5.52;73.60;103649.25;5075502;28;45442;-68
2022/01/13 01:41:35;;;;;;;;;26.75;20.50;;;;;5.60;73.72;103654.97;5056143;28;45458;-68
2022/01/13 01:44:09;;;;;;;;;26.50;18.50;;;;;5.61;73.71;103660.31;5075145;28;45473;-66
2022/01/13 01:46:41;;;;;;;;;31.50;19.25;;;;;5.49;73.16;103636.94;5059856;28;45512;-68
2022/01/13 01:49:16;;;;;;;;;24.50;20.00;;;;;5.69;73.36;103663.41;5070672;27;45319;-70
2022/01/13 01:51:47;;;;;;;;;23.25;19.00;;;;;5.68;73.46;103666.84;5071328;27;46932;-68
2022/01/13 01:54:14;;;;;;;;;20.50;17.50;;;;;5.68;73.49;103662.53;5073904;27;45461;-67
2022/01/13 01:56:40;;;;;;;;;23.75;20.00;;;;;5.67;73.27;103665.00;5074396;27;45614;-68
2022/01/13 01:59:12;;;;;;;;;23.75;20.00;;;;;5.69;73.39;103663.41;5073628;28;45571;-69
2022/01/13 02:01:38;;;;;;;;;28.50;22.00;;;;;5.66;73.75;103673.63;5073617;28;46400;-68
2022/01/13 02:04:04;;;;;;;;;26.75;22.00;;;;;5.64;73.53;103672.59;5072104;28;45396;-69
2022/01/13 02:06:29;;;;;;;;;23.00;20.75;;;;;5.63;72.77;103674.31;5058641;28;45703;-69
2022/01/13 02:08:56;;;;;;;;;26.50;21.50;;;;;5.53;73.24;103651.09;5071475;28;45592;-68
2022/01/13 02:11:24;;;;;;;;;24.75;20.75;;;;;5.57;73.48;103660.88;5074259;27;45650;-67
2022/01/13 02:13:56;;;;;;;;;22.50;18.00;;;;;5.61;73.24;103683.69;5065585;28;45315;-69
2022/01/13 02:19:00;;;;;;;;;21.50;20.25;;;;;5.45;73.09;103681.72;5078644;28;45386;-68
2022/01/13 02:21:27;;;;;;;;;18.25;15.75;;;;;5.29;73.12;103664.16;5077810;27;45485;-68
2022/01/13 02:23:55;;;;;;;;;24.00;19.00;;;;;5.38;73.81;103674.28;5064085;28;45343;-68
2022/01/13 02:26:22;;;;;;;;;18.50;17.00;;;;;5.22;73.10;103668.81;5040604;28;45482;-67
2022/01/13 02:28:53;;;;;;;;;29.00;21.50;;;;;5.32;73.61;103697.25;5058497;28;45445;-66
2022/01/13 02:31:21;;;;;;;;;18.75;16.75;;;;;5.14;73.22;103683.84;5072366;28;46053;-67
2022/01/13 02:33:47;;;;;;;;;20.00;18.25;;;;;5.08;73.40;103699.03;5073230;28;45580;-67
2022/01/13 02:36:17;;;;;;;;;26.50;20.75;;;;;4.94;73.00;103690.22;5073572;28;45426;-67
2022/01/13 02:38:50;;;;;;;;;25.75;18.75;;;;;4.75;73.47;103672.41;5071767;28;45498;-68
2022/01/13 02:41:16;;;;;;;;;18.75;17.25;;;;;4.71;74.02;103672.06;5074710;28;46356;-67
2022/01/13 02:43:43;;;;;;;;;24.50;21.75;;;;;4.65;74.12;103678.63;5075044;28;45507;-67
2022/01/13 02:49:15;;;;;;;;;25.00;20.75;;;;;4.47;75.31;103665.19;4976784;28;46091;-69
2022/01/13 02:51:44;;;;;;;;;21.25;18.25;;;;;4.47;75.64;103660.00;5058586;28;46386;-68
2022/01/13 02:54:10;;;;;;;;;22.00;20.25;;;;;4.50;75.72;103661.91;5077684;28;45535;-69
2022/01/13 02:56:37;;;;;;;;;19.75;18.00;;;;;4.49;75.78;103670.50;5073804;28;45413;-69
2022/01/13 02:59:05;;;;;;;;;21.00;17.00;;;;;4.56;75.71;103667.56;5074624;27;45461;-68
2022/01/13 03:01:31;;;;;;;;;28.00;23.25;;;;;4.55;75.42;103673.53;5059078;28;47418;-68
2022/01/13 03:03:59;;;;;;;;;19.00;17.00;;;;;4.53;75.63;103664.75;5078079;28;45209;-68
2022/01/13 03:06:32;;;;;;;;;22.50;20.25;;;;;4.75;75.02;103674.09;5078711;28;45437;-69
2022/01/13 03:08:58;;;;;;;;;19.00;15.75;;;;;4.51;74.48;103640.38;5074870;28;45529;-68
2022/01/13 03:11:30;;;;;;;;;20.00;16.75;;;;;4.66;74.53;103672.63;5073076;27;45346;-66
2022/01/13 03:13:56;;;;;;;;;20.75;17.25;;;;;4.48;75.19;103668.69;5078013;28;45489;-67
2022/01/13 03:16:22;;;;;;;;;22.25;19.00;;;;;4.43;75.47;103675.22;5077249;27;45309;-67
2022/01/13 03:18:47;;;;;;;;;24.00;19.00;;;;;4.36;75.86;103654.78;5061504;28;45403;-67
2022/01/13 03:21:13;;;;;;;;;21.25;18.25;;;;;4.36;75.47;103655.69;5060045;28;46014;-67
2022/01/13 03:23:38;;;;;;;;;19.75;14.50;;;;;4.54;75.33;103665.66;5077219;28;45430;-68
2022/01/13 03:26:04;;;;;;;;;17.25;14.75;;;;;4.65;74.85;103662.13;5075329;28;45457;-68
2022/01/13 03:28:37;;;;;;;;;20.00;16.75;;;;;4.75;74.53;103659.44;5075831;28;45949;-67
2022/01/13 03:31:07;;;;;;;;;18.75;16.25;;;;;4.84;74.57;103665.28;5075885;28;45776;-66
2022/01/13 03:33:34;;;;;;;;;16.00;14.50;;;;;4.80;73.74;103667.56;5072504;27;45559;-65
2022/01/13 03:36:02;;;;;;;;;21.75;15.25;;;;;4.72;74.58;103655.69;5051606;28;45393;-66
2022/01/13 03:38:28;;;;;;;;;21.50;18.25;;;;;4.55;74.26;103644.06;5058361;28;45236;-66
2022/01/13 03:40:53;;;;;;;;;18.25;16.50;;;;;4.59;74.40;103662.59;5056815;28;45942;-69
2022/01/13 03:43:19;;;;;;;;;18.00;18.00;;;;;4.56;75.01;103661.47;5053460;28;45387;-65
2022/01/13 03:45:48;;;;;;;;;16.75;15.25;;;;;4.64;75.16;103663.81;5053968;28;45520;-66
2022/01/13 03:48:14;;;;;;;;;16.50;13.50;;;;;4.51;74.91;103635.19;5057157;28;45526;-67
2022/01/13 03:50:42;;;;;;;;;21.50;19.75;;;;;4.68;74.50;103671.06;5057312;28;46267;-66
2022/01/13 03:53:26;;;;;;;;;18.75;15.00;;;;;4.61;74.13;103668.81;5057398;28;45420;-66
2022/01/13 03:56:29;;;;;;;;;21.75;17.00;;;;;4.63;74.50;103668.94;5056928;28;45618;-67
2022/01/13 03:59:17;;;;;;;;;21.25;15.75;;;;;4.71;74.37;103672.06;5055967;28;45684;-66
2022/01/13 04:01:59;;;;;;;;;20.25;17.00;;;;;4.76;74.02;103665.50;5055144;28;45860;-68
2022/01/13 04:04:25;;;;;;;;;17.75;16.00;;;;;4.81;73.93;103672.84;5040763;28;45406;-66
2022/01/13 04:07:05;;;;;;;;;19.25;16.25;;;;;4.85;73.46;103668.78;5056938;28;45294;-66
2022/01/13 04:09:37;;;;;;;;;22.25;20.00;;;;;4.75;74.04;103666.31;5055162;28;45477;-66
2022/01/13 04:12:07;;;;;;;;;25.25;20.75;;;;;4.60;74.65;103667.00;5053773;28;46101;-66
2022/01/13 04:14:45;;;;;;;;;23.50;14.00;;;;;4.62;74.46;103669.69;5045941;28;45469;-69
2022/01/13 04:17:12;;;;;;;;;21.50;19.25;;;;;4.55;74.18;103663.16;5077894;28;45440;-69
2022/01/13 04:19:38;;;;;;;;;22.00;21.00;;;;;4.48;73.91;103660.88;5077952;28;45506;-68
2022/01/13 04:22:04;;;;;;;;;20.50;19.00;;;;;4.45;73.90;103650.28;5073708;28;46101;-67
2022/01/13 04:24:29;;;;;;;;;23.25;18.50;;;;;4.40;74.12;103654.25;5054617;28;45507;-68
2022/01/13 04:26:57;;;;;;;;;15.75;15.75;;;;;4.37;74.14;103660.13;5064208;28;45520;-67
2022/01/13 04:29:36;;;;;;;;;18.25;14.25;;;;;4.39;74.63;103668.00;5057209;28;46260;-66
2022/01/13 04:32:04;;;;;;;;;18.00;17.50;;;;;4.38;74.01;103650.63;5056830;28;46126;-67
2022/01/13 04:34:29;;;;;;;;;22.50;19.50;;;;;4.39;73.80;103652.41;5056409;28;45541;-67
2022/01/13 04:36:56;;;;;;;;;21.00;16.50;;;;;4.37;73.46;103648.84;5055646;28;45501;-68
2022/01/13 04:39:22;;;;;;;;;16.50;16.50;;;;;4.32;73.55;103657.94;5056118;28;45437;-65
2022/01/13 04:41:48;;;;;;;;;20.25;18.25;;;;;4.28;74.17;103653.34;5037957;28;46739;-66
2022/01/13 04:44:17;;;;;;;;;24.25;17.25;;;;;4.23;74.07;103648.69;5040380;28;45555;-66
2022/01/13 04:46:44;;;;;;;;;18.50;18.00;;;;;4.15;74.63;103649.84;5057145;28;45442;-68
2022/01/13 04:49:10;;;;;;;;;20.25;17.25;;;;;4.01;74.27;103645.28;5056255;28;45846;-67
2022/01/13 04:51:37;;;;;;;;;22.50;17.75;;;;;3.94;74.15;103641.34;5055991;28;46014;-67
2022/01/13 04:54:02;;;;;;;;;18.50;15.50;;;;;3.97;74.45;103651.03;5057593;28;45560;-68
2022/01/13 04:57:03;;;;;;;;;19.25;18.75;;;;;3.96;74.32;103654.41;5060342;28;45425;-67
2022/01/13 04:59:28;;;;;;;;;20.00;15.75;;;;;3.95;74.45;103662.97;5056372;28;45531;-66
2022/01/13 05:01:54;;;;;;;;;15.00;14.25;;;;;3.91;75.33;103671.31;5055478;28;45600;-68
2022/01/13 05:04:21;;;;;;;;;22.75;18.25;;;;;3.76;74.77;103638.25;5055247;28;45470;-68
2022/01/13 05:06:46;;;;;;;;;16.75;16.50;;;;;3.83;74.61;103658.66;5055867;28;45485;-66
2022/01/13 05:09:12;;;;;;;;;19.50;17.50;;;;;3.85;75.64;103674.34;5056083;28;45810;-67
2022/01/13 05:11:37;;;;;;;;;20.00;18.00;;;;;3.66;75.45;103655.59;5055304;28;45863;-66
2022/01/13 05:14:03;;;;;;;;;27.75;18.50;;;;;3.81;75.30;103672.28;5037110;28;45557;-66
2022/01/13 05:16:48;;;;;;;;;14.00;12.50;;;;;3.67;75.98;103658.28;5056158;28;45894;-66
2022/01/13 05:19:18;;;;;;;;;16.75;14.50;;;;;3.60;75.80;103656.88;5037660;28;45558;-66
2022/01/13 05:22:05;;;;;;;;;19.50;18.50;;;;;3.70;75.62;103670.56;5055757;28;45513;-66
2022/01/13 05:24:29;;;;;;;;;19.00;18.50;;;;;3.66;76.55;103669.44;5055593;28;45368;-66
2022/01/13 05:26:55;;;;;;;;;23.75;17.00;;;;;3.55;75.72;103668.59;5055727;28;45457;-66
2022/01/13 05:29:20;;;;;;;;;21.00;18.75;;;;;3.58;76.16;103668.84;5059987;28;45320;-65
2022/01/13 05:31:49;;;;;;;;;17.00;15.75;;;;;3.52;76.21;103651.91;5058719;28;46254;-67
2022/01/13 05:34:16;;;;;;;;;18.25;17.75;;;;;3.57;76.70;103663.53;5038619;28;45351;-66
2022/01/13 05:36:42;;;;;;;;;20.00;14.00;;;;;3.63;76.31;103678.66;5056133;28;45581;-67
2022/01/13 05:39:07;;;;;;;;;21.75;16.25;;;;;3.55;76.39;103655.63;5055513;28;45887;-66
2022/01/13 05:41:33;;;;;;;;;18.75;17.25;;;;;3.66;75.65;103665.94;5054968;28;45943;-67
2022/01/13 05:43:59;;;;;;;;;21.50;17.00;;;;;3.69;76.00;103667.06;5055351;28;45482;-66
2022/01/13 05:46:25;;;;;;;;;23.75;18.00;;;;;3.48;76.54;103639.50;5055084;28;45422;-67
2022/01/13 05:48:50;;;;;;;;;19.00;17.25;;;;;3.67;76.25;103659.97;5055083;28;45448;-67
2022/01/13 05:51:16;;;;;;;;;20.25;17.25;;;;;3.62;76.34;103657.00;5055150;28;46392;-67
2022/01/13 05:53:42;;;;;;;;;24.25;20.25;;;;;3.53;76.35;103641.66;5054742;28;45387;-66
2022/01/13 05:56:09;;;;;;;;;17.50;16.50;;;;;3.36;76.69;103613.53;5055762;28;45650;-67
2022/01/13 05:58:35;;;;;;;;;17.25;14.00;;;;;3.57;76.56;103641.09;5067041;28;45390;-67
2022/01/13 06:01:00;;;;;;;;;22.75;18.75;;;;;3.53;77.10;103639.06;5062687;28;45543;-68
2022/01/13 06:03:27;;;;;;;;;28.25;21.25;;;;;3.72;76.09;103658.63;5077328;28;45296;-68
2022/01/13 06:05:53;;;;;;;;;24.75;19.25;;;;;3.67;76.04;103641.81;5075584;28;45372;-69
2022/01/13 06:08:18;;;;;;;;;21.75;17.00;;;;;3.69;75.71;103646.34;5075206;27;45445;-66
2022/01/13 06:10:46;;;;;;;;;20.50;19.00;;;;;3.62;75.60;103662.19;5074555;28;46378;-66
2022/01/13 06:13:13;;;;;;;;;21.75;18.25;;;;;3.64;76.83;103671.00;5074780;28;45580;-67
2022/01/13 06:15:39;;;;;;;;;19.00;17.00;;;;;3.72;76.79;103662.13;5075176;27;45394;-67
2022/01/13 06:18:12;;;;;;;;;21.00;19.00;;;;;3.83;75.74;103657.75;5075515;27;45683;-66
2022/01/13 06:20:39;;;;;;;;;24.25;20.00;;;;;3.89;76.35;103659.91;5074814;27;45770;-68
2022/01/13 06:23:05;;;;;;;;;21.50;18.75;;;;;3.94;75.89;103653.38;5078611;27;45284;-68
2022/01/13 06:25:31;;;;;;;;;24.50;19.00;;;;;4.01;75.25;103659.16;5075521;27;45301;-66
2022/01/13 06:27:57;;;;;;;;;23.25;20.00;;;;;4.00;75.29;103653.84;5075065;28;45299;-69
2022/01/13 06:30:23;;;;;;;;;20.50;18.00;;;;;3.95;75.15;103657.78;5074684;27;45350;-67
2022/01/13 06:32:48;;;;;;;;;22.50;21.75;;;;;3.81;75.70;103647.25;5074469;28;45357;-69
2022/01/13 06:35:14;;;;;;;;;27.50;23.75;;;;;3.82;75.22;103658.56;5074820;28;45361;-68
2022/01/13 06:37:43;;;;;;;;;22.00;18.50;;;;;3.79;75.59;103663.50;5074702;28;45617;-67
2022/01/13 06:40:11;;;;;;;;;28.00;22.00;;;;;3.82;75.76;103664.66;5074916;28;46147;-67
2022/01/13 06:42:38;;;;;;;;;28.00;24.25;;;;;3.40;75.39;103615.59;5074650;27;45694;-67
2022/01/13 06:45:05;;;;;;;;;25.75;20.75;;;;;3.70;75.58;103670.56;5074734;28;45398;-68
2022/01/13 06:47:31;;;;;;;;;33.50;28.25;;;;;3.65;75.68;103671.91;5074022;27;45340;-67
2022/01/13 06:49:56;;;;;;;;;22.75;22.75;;;;;3.45;76.48;103639.28;5074568;27;45994;-66
2022/01/13 06:52:32;;;;;;;;;31.25;24.25;;;;;3.64;76.25;103660.63;5074103;27;45467;-67
2022/01/13 06:55:03;;;;;;;;;28.00;25.00;;;;;3.67;76.62;103668.63;5036401;28;45518;-65
2022/01/13 06:57:30;;;;;;;;;28.00;20.50;;;;;3.75;75.62;103670.16;5056346;28;45425;-67
2022/01/13 06:59:56;;;;;;;;;27.00;24.00;;;;;3.63;76.11;103645.88;5058679;28;45376;-67
2022/01/13 07:02:38;;;;;;;;;25.25;23.75;;;;;3.74;75.39;103659.66;5055003;28;45472;-67
2022/01/13 07:05:05;;;;;;;;;30.75;25.50;;;;;3.78;75.45;103656.50;5052979;28;45513;-66
2022/01/13 07:07:35;;;;;;;;;26.50;25.50;;;;;3.87;76.06;103666.66;5057950;28;45383;-66
2022/01/13 07:10:00;;;;;;;;;30.75;21.50;;;;;3.77;75.39;103637.47;5055367;28;46093;-67
2022/01/13 07:12:26;;;;;;;;;25.00;24.50;;;;;3.82;75.53;103651.69;5053666;28;45410;-66
2022/01/13 07:14:51;;;;;;;;;27.75;25.00;;;;;3.74;75.46;103660.53;5018923;28;45438;-66
2022/01/13 07:17:17;;;;;;;;;28.25;27.00;;;;;3.81;75.78;103669.69;5039185;28;45406;-67
2022/01/13 07:19:45;;;;;;;;;30.75;27.00;;;;;3.81;75.33;103655.03;5053513;28;46258;-67
2022/01/13 07:22:11;;;;;;;;;28.25;24.50;;;;;3.94;75.60;103671.53;5036604;28;45348;-66
2022/01/13 07:24:36;;;;;;;;;33.00;28.00;;;;;3.92;74.83;103665.34;5055387;28;45465;-67
2022/01/13 07:27:02;;;;;;;;;25.75;24.25;;;;;3.95;74.91;103675.94;5054373;28;45426;-67
2022/01/13 07:29:28;;;;;;;;;31.25;28.00;;;;;3.87;75.12;103677.03;5057469;28;46461;-67
2022/01/13 07:31:53;;;;;;;;;24.00;23.00;;;;;3.73;75.81;103666.53;5053537;28;45358;-66
2022/01/13 07:34:19;;;;;;;;;28.50;19.75;;;;;3.83;75.43;103682.00;5054751;28;45297;-67
2022/01/13 07:36:44;;;;;;;;;24.25;19.00;;;;;3.74;75.25;103673.50;5058385;28;45446;-67
2022/01/13 07:39:10;;;;;;;;;29.00;26.25;;;;;3.49;76.58;103641.28;5057767;28;45339;-67
2022/01/13 07:41:39;;;;;;;;;26.75;24.75;;;;;3.60;75.75;103659.47;5054339;28;45407;-67
2022/01/13 07:44:06;;;;;;;;;22.50;21.00;;;;;3.83;75.89;103681.09;5034850;28;45465;-67
2022/01/13 07:46:31;;;;;;;;;30.00;23.75;;;;;3.78;75.96;103674.66;5053442;28;45535;-68
2022/01/13 07:48:57;;;;;;;;;22.75;20.25;;;;;3.83;76.09;103678.50;5052473;28;46195;-68
2022/01/13 07:51:23;;;;;;;;;27.75;26.75;;;;;3.81;75.75;103680.06;5053479;28;45481;-67
2022/01/13 07:53:48;;;;;;;;;30.00;25.25;;;;;3.76;75.43;103665.88;5035340;28;45315;-67
2022/01/13 07:56:17;;;;;;;;;30.75;27.50;;;;;3.68;75.86;103649.72;5053372;28;45292;-68
2022/01/13 07:58:44;;;;;;;;;30.00;26.25;;;;;3.87;75.68;103677.97;5053047;28;47052;-68
2022/01/13 08:01:10;;;;;;;;;32.00;27.25;;;;;3.85;75.98;103673.44;5060506;28;45391;-66
2022/01/13 08:03:36;;;;;;;;;30.75;23.75;;;;;3.88;75.39;103659.00;5060813;28;45537;-66
2022/01/13 08:06:04;;;;;;;;;26.50;23.50;;;;;3.93;75.31;103668.03;5059311;28;45576;-66
2022/01/13 08:08:32;;;;;;;;;32.50;26.25;;;;;3.72;76.10;103625.81;5056503;28;45317;-68
2022/01/13 08:10:58;;;;;;;;;27.25;25.25;;;;;3.80;76.04;103665.31;5058563;28;45277;-68
2022/01/13 08:13:24;;;;;;;;;37.50;28.50;;;;;3.79;76.32;103672.16;5056894;28;45458;-68
2022/01/13 08:15:52;;;;;;;;;31.25;25.75;;;;;3.81;76.54;103672.28;5057331;28;45526;-67
2022/01/13 08:21:02;;;;;;;;;33.75;28.00;;;;;3.86;75.92;103664.88;5060532;28;45358;-68
2022/01/13 08:23:31;;;;;;;;;34.75;29.25;;;;;3.85;76.46;103663.06;5057606;28;45394;-66
2022/01/13 08:25:57;;;;;;;;;30.50;24.00;;;;;3.85;75.62;103676.03;5056698;28;45406;-67
2022/01/13 08:28:23;;;;;;;;;33.00;28.00;;;;;3.91;76.10;103673.91;5056528;28;45532;-67
2022/01/13 08:30:49;;;;;;;;;29.50;27.00;;;;;3.81;75.74;103642.09;5058869;28;45433;-68
2022/01/13 08:33:14;;;;;;;;;29.50;26.00;;;;;3.91;75.52;103656.63;5055782;28;45422;-67
2022/01/13 08:35:43;;;;;;;;;28.75;26.50;;;;;3.99;75.21;103659.84;5055873;28;45541;-66
2022/01/13 08:38:18;;;;;;;;;30.00;26.00;;;;;3.72;74.98;103632.69;5038239;28;45913;-68
2022/01/13 08:40:49;;;;;;;;;34.00;23.75;;;;;3.89;75.63;103663.44;5040877;28;45454;-68
2022/01/13 08:43:16;;;;;;;;;27.75;24.50;;;;;3.87;75.77;103638.13;5056113;28;45814;-67
2022/01/13 08:45:42;;;;;;;;;33.25;28.25;;;;;3.95;74.76;103660.38;5055892;28;45539;-67
2022/01/13 08:48:08;;;;;;;;;32.25;25.50;;;;;3.94;75.18;103658.56;5056232;28;47978;-67
2022/01/13 08:50:34;;;;;;;;;28.75;26.00;;;;;3.93;75.30;103656.78;5075456;27;45841;-67
2022/01/13 08:52:59;;;;;;;;;31.25;27.50;;;;;3.89;75.82;103658.25;5075697;27;45302;-68
2022/01/13 08:55:25;;;;;;;;;33.75;28.25;;;;;3.98;75.66;103660.59;5061951;28;45520;-68
2022/01/13 08:57:52;;;;;;;;;27.75;23.75;;;;;4.03;74.69;103664.44;5078431;27;45403;-66
2022/01/13 09:00:18;;;;;;;;;38.00;30.50;;;;;3.90;75.41;103644.47;5075809;27;45302;-67
2022/01/13 09:02:44;;;;;;;;;33.75;28.25;;;;;3.90;74.81;103647.06;5074730;27;45495;-68
2022/01/13 09:05:13;;;;;;;;;38.50;32.50;;;;;3.97;74.66;103662.31;5079540;28;45418;-68
2022/01/13 09:07:39;;;;;;;;;38.00;32.00;;;;;4.01;75.01;103669.53;5075617;27;45421;-68
2022/01/13 09:10:06;;;;;;;;;32.75;28.00;;;;;4.11;75.33;103672.84;5075037;27;45385;-68
2022/01/13 09:12:32;;;;;;;;;36.00;32.25;;;;;4.20;75.03;103683.88;5076989;28;45501;-68
2022/01/13 09:15:02;;;;;;;;;34.50;30.75;;;;;4.26;75.24;103676.56;5079720;28;45447;-67
2022/01/13 09:17:30;;;;;;;;;37.75;29.00;;;;;4.49;76.47;103682.59;5079838;27;45455;-67
2022/01/13 09:19:55;;;;;;;;;33.75;29.25;;;;;4.60;74.24;103695.56;5075627;28;45326;-71
2022/01/13 09:22:21;;;;;;;;;29.75;25.75;;;;;4.57;73.90;103673.66;5056772;28;45700;-68
2022/01/13 09:24:47;;;;;;;;;35.75;27.75;;;;;4.67;73.61;103691.69;5056993;28;45565;-67
2022/01/13 09:27:13;;;;;;;;;39.00;33.75;;;;;4.57;73.36;103681.44;5069761;27;45725;-68
2022/01/13 09:29:39;;;;;;;;;38.00;32.75;;;;;4.63;72.86;103697.47;5055218;28;45394;-68
2022/01/13 09:32:05;;;;;;;;;34.50;26.50;;;;;4.51;73.34;103694.88;5055035;28;45407;-66
2022/01/13 09:34:31;;;;;;;;;40.75;30.00;;;;;4.46;73.55;103694.53;5055327;28;45441;-69
2022/01/13 09:36:57;;;;;;;;;30.25;24.50;;;;;4.52;73.52;103688.88;5036464;28;47520;-68
2022/01/13 09:39:27;;;;;;;;;28.50;24.50;;;;;4.54;73.31;103682.13;5054842;28;45363;-69
2022/01/13 09:41:55;;;;;;;;;33.50;30.25;;;;;4.70;73.18;103696.22;5070407;27;45438;-67
2022/01/13 09:44:21;;;;;;;;;39.50;32.25;;;;;4.64;73.70;103694.09;5055307;28;45492;-66
2022/01/13 09:46:47;;;;;;;;;44.50;33.00;;;;;4.72;72.93;103711.09;5057702;28;46573;-68
2022/01/13 09:49:13;;;;;;;;;40.00;34.75;;;;;4.60;73.29;103698.16;5054702;28;45524;-67
2022/01/13 09:51:44;;;;;;;;;42.50;33.75;;;;;4.59;72.63;103705.81;5054735;28;45396;-67
2022/01/13 09:54:10;;;;;;;;;30.25;25.75;;;;;4.56;72.31;103698.72;5074679;28;45384;-67
2022/01/13 09:56:36;;;;;;;;;32.75;27.00;;;;;4.36;72.50;103686.84;5056769;28;45354;-68
2022/01/13 09:59:01;;;;;;;;;31.50;30.00;;;;;4.54;73.34;103717.56;5054660;28;45360;-69
2022/01/13 10:01:27;;;;;;;;;28.75;24.25;;;;;4.47;72.59;103696.31;5053477;28;45370;-68
2022/01/13 10:03:52;;;;;;;;;35.75;31.00;;;;;4.63;72.03;103713.94;5055033;28;45426;-67
2022/01/13 10:06:20;;;;;;;;;39.25;32.50;;;;;4.59;72.68;103722.28;5054422;28;45828;-67
2022/01/13 10:08:50;;;;;;;;;33.50;30.25;;;;;4.51;72.35;103718.25;5054908;28;45346;-69
2022/01/13 10:11:26;;;;;;;;;28.25;28.00;;;;;4.45;72.86;103708.28;5054815;28;45377;-68
2022/01/13 10:16:53;;;;;;;;;31.50;27.50;;;;;4.55;72.78;103693.41;5054525;28;46576;-68
2022/01/13 10:19:37;;;;;;;;;31.75;26.75;;;;;4.52;71.90;103669.81;5054652;28;45497;-68
2022/01/13 10:22:25;;;;;;;;;29.50;27.00;;;;;4.87;71.59;103721.75;5068922;28;45420;-68
2022/01/13 10:24:54;;;;;;;;;33.75;27.25;;;;;5.02;71.93;103719.34;5054526;28;45410;-67
2022/01/13 10:27:22;;;;;;;;;26.00;24.50;;;;;5.09;70.75;103719.91;5053057;28;45533;-67
2022/01/13 10:29:51;;;;;;;;;33.25;29.50;;;;;5.18;71.47;103717.06;5062859;28;45851;-68
2022/01/13 10:32:24;;;;;;;;;31.75;28.50;;;;;5.19;70.46;103716.25;5076586;28;45520;-69
2022/01/13 10:34:58;;;;;;;;;40.75;31.50;;;;;5.16;69.75;103707.34;5078839;28;45699;-68
2022/01/13 10:37:33;;;;;;;;;38.00;29.00;;;;;4.97;70.36;103706.03;5078004;28;46036;-67
2022/01/13 10:40:16;;;;;;;;;32.50;30.00;;;;;4.94;70.49;103711.00;5074558;28;45517;-67
2022/01/13 10:45:22;;;;;;;;;34.00;32.50;;;;;4.89;71.40;103694.19;5074509;28;45493;-68
2022/01/13 10:47:51;;;;;;;;;35.25;31.75;;;;;4.99;70.70;103711.34;5074026;28;45668;-68
2022/01/13 10:50:17;;;;;;;;;34.75;27.00;;;;;5.08;71.49;103704.22;5077063;28;45260;-66
2022/01/13 10:52:43;;;;;;;;;28.25;25.00;;;;;5.19;70.69;103703.25;5074195;28;45331;-67
2022/01/13 10:55:12;;;;;;;;;41.25;31.75;;;;;5.18;69.34;103693.69;5056190;28;45526;-68
2022/01/13 10:57:43;;;;;;;;;33.00;30.00;;;;;5.08;68.93;103702.50;5074117;28;46212;-67
2022/01/13 11:00:24;;;;;;;;;38.75;32.00;;;;;4.82;70.05;103694.53;5074114;27;45354;-68
2022/01/13 11:03:07;;;;;;;;;41.75;32.25;;;;;4.86;69.73;103683.56;5059677;28;45306;-68
2022/01/13 11:05:36;;;;;;;;;43.50;34.00;;;;;4.96;70.16;103695.50;5074862;27;45524;-68
2022/01/13 11:08:07;;;;;;;;;35.00;29.50;;;;;4.98;69.58;103692.22;5074526;28;45533;-67
2022/01/13 11:10:34;;;;;;;;;28.75;28.00;;;;;4.90;70.37;103683.00;5073915;27;45422;-68
2022/01/13 11:13:02;;;;;;;;;40.75;33.75;;;;;4.91;69.67;103669.19;5074530;28;45414;-67
2022/01/13 11:15:28;;;;;;;;;46.25;36.00;;;;;4.96;70.18;103686.06;5074689;28;45350;-68
2022/01/13 11:17:59;;;;;;;;;37.75;30.25;;;;;5.01;70.46;103679.50;5073568;28;45687;-67
2022/01/13 11:20:26;;;;;;;;;49.00;36.50;;;;;5.19;70.48;103682.47;5055502;28;45477;-68
2022/01/13 11:22:54;;;;;;;;;40.00;35.25;;;;;5.21;69.89;103683.50;5074670;28;45739;-67
2022/01/13 11:25:24;;;;;;;;;41.75;34.00;;;;;5.23;69.32;103686.22;5059032;28;45255;-68
2022/01/13 11:27:51;;;;;;;;;38.00;32.50;;;;;5.28;70.19;103677.03;5073661;28;45746;-68
2022/01/13 11:30:22;;;;;;;;;42.00;33.25;;;;;5.26;69.49;103660.44;5073890;27;45490;-68
2022/01/13 11:32:48;;;;;;;;;36.25;34.00;;;;;5.44;69.23;103672.13;5076162;27;45848;-67
2022/01/13 11:35:21;;;;;;;;;37.75;32.75;;;;;5.49;69.54;103670.75;5077521;27;45386;-67
2022/01/13 11:37:48;;;;;;;;;47.50;37.25;;;;;5.42;68.56;103652.03;5080404;27;45734;-67
2022/01/13 11:40:25;;;;;;;;;41.75;35.25;;;;;5.46;68.82;103662.75;5077026;27;45552;-65
2022/01/13 11:42:51;;;;;;;;;34.00;27.25;;;;;5.43;68.74;103665.09;5079398;27;45248;-67
2022/01/13 11:45:19;;;;;;;;;48.50;38.25;;;;;5.29;68.39;103650.25;5078770;28;45413;-67
2022/01/13 11:47:44;;;;;;;;;42.00;35.00;;;;;5.27;68.86;103660.56;5077076;27;45403;-67
2022/01/13 11:50:19;;;;;;;;;37.50;33.50;;;;;5.21;68.24;103651.41;5077475;27;45374;-67
2022/01/13 11:52:53;;;;;;;;;43.00;34.00;;;;;5.21;68.76;103651.41;5061414;28;45451;-67
2022/01/13 11:55:25;;;;;;;;;47.75;35.00;;;;;4.98;68.88;103608.22;5076848;27;45517;-67